createdAt,value
2018-02-24T00:00:21.634Z,90.20
2018-02-24T00:00:55.303Z,90.20
2018-02-24T00:01:29.369Z,90.20
2018-02-24T00:02:03.048Z,90.20
2018-02-24T00:02:36.700Z,90.10
2018-02-24T00:03:10.371Z,90.10
2018-02-24T00:03:44.042Z,90.10
2018-02-24T00:04:17.719Z,90.00
2018-02-24T00:04:51.382Z,89.90
2018-02-24T00:05:25.041Z,89.80
2018-02-24T00:05:58.699Z,89.60
2018-02-24T00:06:32.385Z,89.60
2018-02-24T00:07:06.048Z,89.40
2018-02-24T00:07:39.720Z,89.40
2018-02-24T00:08:14.139Z,89.70
2018-02-24T00:08:47.921Z,89.70
2018-02-24T00:09:22.389Z,89.60
2018-02-24T00:09:56.064Z,89.60
2018-02-24T00:10:29.740Z,89.40
2018-02-24T00:11:03.410Z,89.30
2018-02-24T00:11:37.086Z,89.20
2018-02-24T00:12:11.499Z,88.70
2018-02-24T00:12:45.934Z,88.40
2018-02-24T00:13:19.624Z,88.40
2018-02-24T00:13:53.294Z,88.30
2018-02-24T00:14:26.982Z,88.20
2018-02-24T00:15:00.651Z,88.10
2018-02-24T00:15:35.075Z,88.20
2018-02-24T00:16:08.727Z,88.10
2018-02-24T00:16:42.388Z,88.20
2018-02-24T00:17:16.101Z,88.20
2018-02-24T00:17:50.665Z,87.90
2018-02-24T00:18:24.510Z,87.90
2018-02-24T00:18:58.164Z,87.70
2018-02-24T00:19:31.845Z,87.70
2018-02-24T00:20:05.161Z,87.60
2018-02-24T00:20:38.868Z,87.50
2018-02-24T00:21:12.507Z,87.40
2018-02-24T00:21:46.171Z,87.30
2018-02-24T00:22:20.601Z,86.90
2018-02-24T00:22:54.292Z,86.80
2018-02-24T00:23:27.957Z,86.70
2018-02-24T00:24:02.405Z,86.10
2018-02-24T00:24:36.080Z,86.10
2018-02-24T00:25:09.734Z,86.10
2018-02-24T00:25:44.161Z,86.30
2018-02-24T00:26:17.835Z,86.20
2018-02-24T00:26:52.262Z,86.50
2018-02-24T00:27:25.926Z,86.50
2018-02-24T00:28:00.400Z,86.60
2018-02-24T00:28:34.072Z,86.50
2018-02-24T00:29:07.753Z,86.70
2018-02-24T00:29:41.466Z,86.70
2018-02-24T00:30:15.147Z,86.90
2018-02-24T00:30:48.822Z,87.10
2018-02-24T00:31:22.149Z,87.30
2018-02-24T00:31:55.827Z,87.50
2018-02-24T00:32:29.478Z,87.60
2018-02-24T00:33:03.144Z,87.70
2018-02-24T00:33:37.581Z,87.80
2018-02-24T00:34:11.274Z,87.80
2018-02-24T00:34:44.971Z,87.90
2018-02-24T00:35:18.641Z,88.00
2018-02-24T00:35:52.310Z,88.10
2018-02-24T00:36:26.763Z,88.20
2018-02-24T00:37:00.450Z,88.20
2018-02-24T00:37:34.353Z,88.20
2018-02-24T00:38:08.518Z,88.30
2018-02-24T00:38:42.202Z,88.50
2018-02-24T00:39:16.647Z,88.40
2018-02-24T00:39:50.347Z,88.40
2018-02-24T00:40:24.038Z,88.60
2018-02-24T00:40:57.721Z,88.70
2018-02-24T00:41:31.448Z,89.30
2018-02-24T00:42:05.874Z,88.80
2018-02-24T00:42:39.548Z,88.70
2018-02-24T00:43:14.028Z,88.90
2018-02-24T00:43:47.511Z,88.80
2018-02-24T00:44:21.178Z,88.90
2018-02-24T00:44:54.889Z,89.00
2018-02-24T00:45:28.560Z,89.00
2018-02-24T00:46:02.264Z,89.00
2018-02-24T00:46:35.933Z,89.00
2018-02-24T00:47:09.647Z,88.90
2018-02-24T00:47:43.341Z,88.80
2018-02-24T00:48:16.885Z,88.70
2018-02-24T00:48:50.401Z,88.60
2018-02-24T00:49:23.883Z,88.60
2018-02-24T00:49:57.529Z,88.60
2018-02-24T00:50:31.015Z,88.60
2018-02-24T00:51:04.531Z,88.60
2018-02-24T00:51:38.197Z,88.50
2018-02-24T00:52:11.883Z,88.30
2018-02-24T00:52:45.559Z,88.20
2018-02-24T00:53:19.809Z,87.70
2018-02-24T00:53:53.298Z,87.70
2018-02-24T00:54:26.772Z,87.50
2018-02-24T00:55:00.460Z,87.40
2018-02-24T00:55:33.941Z,87.40
2018-02-24T00:56:07.417Z,87.20
2018-02-24T00:56:40.911Z,87.20
2018-02-24T00:57:14.716Z,87.30
2018-02-24T00:57:48.993Z,87.20
2018-02-24T00:58:22.583Z,87.20
2018-02-24T00:58:56.065Z,87.00
2018-02-24T00:59:29.720Z,87.00
2018-02-24T01:00:03.440Z,86.90
2018-02-24T01:00:37.105Z,86.90
2018-02-24T01:01:10.776Z,86.80
2018-02-24T01:01:45.934Z,86.30
2018-02-24T01:02:20.389Z,86.20
2018-02-24T01:02:54.057Z,86.10
2018-02-24T01:03:27.755Z,86.00
2018-02-24T01:04:01.411Z,85.60
2018-02-24T01:04:35.643Z,84.90
2018-02-24T01:05:09.341Z,84.90
2018-02-24T01:05:43.003Z,84.80
2018-02-24T01:06:16.653Z,84.70
2018-02-24T01:06:50.311Z,84.60
2018-02-24T01:07:23.970Z,84.00
2018-02-24T01:07:57.454Z,83.70
2018-02-24T01:08:31.116Z,82.80
2018-02-24T01:09:04.108Z,82.50
2018-02-24T01:09:38.556Z,80.80
2018-02-24T01:10:11.598Z,80.80
2018-02-24T01:10:45.260Z,80.00
2018-02-24T01:11:18.925Z,79.60
2018-02-24T01:11:52.581Z,79.50
2018-02-24T01:12:26.236Z,79.10
2018-02-24T01:13:00.679Z,78.70
2018-02-24T01:13:34.362Z,78.60
2018-02-24T01:14:07.727Z,78.60
2018-02-24T01:14:41.825Z,78.60
2018-02-24T01:15:16.289Z,78.70
2018-02-24T01:15:49.953Z,78.70
2018-02-24T01:16:23.734Z,78.50
2018-02-24T01:16:57.405Z,78.00
2018-02-24T01:17:31.842Z,76.50
2018-02-24T01:18:05.502Z,76.50
2018-02-24T01:18:39.932Z,75.40
2018-02-24T01:19:13.586Z,75.40
2018-02-24T01:19:47.248Z,75.10
2018-02-24T01:20:20.764Z,74.90
2018-02-24T01:20:54.683Z,74.50
2018-02-24T01:21:28.855Z,74.50
2018-02-24T01:22:03.270Z,74.40
2018-02-24T01:22:37.712Z,73.90
2018-02-24T01:23:11.195Z,73.90
2018-02-24T01:23:44.878Z,73.80
2018-02-24T01:24:18.539Z,73.80
2018-02-24T01:24:52.967Z,73.30
2018-02-24T01:25:26.661Z,72.80
2018-02-24T01:26:00.339Z,72.50
2018-02-24T01:26:34.782Z,72.30
2018-02-24T01:27:08.487Z,72.30
2018-02-24T01:27:42.142Z,72.80
2018-02-24T01:28:15.808Z,72.10
2018-02-24T01:28:50.239Z,72.00
2018-02-24T01:29:23.910Z,72.00
2018-02-24T01:29:58.338Z,72.00
2018-02-24T01:30:32.047Z,72.00
2018-02-24T01:31:05.716Z,72.00
2018-02-24T01:31:39.380Z,72.00
2018-02-24T01:32:13.836Z,71.90
2018-02-24T01:32:47.321Z,71.90
2018-02-24T01:33:21.026Z,71.80
2018-02-24T01:33:54.699Z,71.80
2018-02-24T01:34:28.390Z,71.70
2018-02-24T01:35:01.882Z,71.50
2018-02-24T01:35:35.389Z,71.50
2018-02-24T01:36:09.050Z,71.40
2018-02-24T01:36:42.717Z,71.50
2018-02-24T01:37:16.370Z,71.40
2018-02-24T01:37:50.032Z,71.50
2018-02-24T01:38:23.706Z,71.70
2018-02-24T01:38:57.044Z,71.80
2018-02-24T01:39:32.014Z,70.90
2018-02-24T01:40:05.826Z,70.90
2018-02-24T01:40:39.551Z,70.70
2018-02-24T01:41:13.245Z,70.60
2018-02-24T01:41:47.687Z,70.20
2018-02-24T01:42:21.354Z,70.20
2018-02-24T01:42:55.045Z,70.00
2018-02-24T01:43:29.321Z,70.10
2018-02-24T01:44:03.804Z,70.30
2018-02-24T01:44:37.467Z,69.70
2018-02-24T01:45:11.131Z,69.70
2018-02-24T01:45:45.114Z,69.70
2018-02-24T01:46:19.557Z,69.70
2018-02-24T01:46:53.261Z,69.70
2018-02-24T01:47:26.926Z,69.80
2018-02-24T01:48:00.594Z,70.00
2018-02-24T01:48:35.041Z,69.70
2018-02-24T01:49:08.723Z,69.60
2018-02-24T01:49:42.388Z,69.60
2018-02-24T01:50:16.085Z,69.60
2018-02-24T01:50:49.793Z,69.70
2018-02-24T01:51:23.458Z,69.80
2018-02-24T01:51:57.147Z,70.00
2018-02-24T01:52:30.802Z,69.90
2018-02-24T01:53:05.079Z,69.70
2018-02-24T01:53:38.759Z,69.90
2018-02-24T01:54:12.418Z,70.10
2018-02-24T01:54:46.088Z,69.90
2018-02-24T01:55:20.542Z,70.00
2018-02-24T01:55:54.250Z,69.80
2018-02-24T01:56:27.921Z,70.10
2018-02-24T01:57:01.583Z,70.20
2018-02-24T01:57:35.999Z,69.90
2018-02-24T01:58:09.657Z,69.90
2018-02-24T01:58:43.307Z,70.00
2018-02-24T01:59:16.985Z,70.00
2018-02-24T01:59:50.467Z,70.10
2018-02-24T02:00:24.122Z,70.00
2018-02-24T02:00:58.260Z,70.30
2018-02-24T02:01:31.918Z,70.20
2018-02-24T02:02:06.394Z,70.40
2018-02-24T02:02:40.049Z,70.40
2018-02-24T02:03:13.711Z,70.40
2018-02-24T02:03:47.373Z,70.20
2018-02-24T02:04:21.025Z,70.30
2018-02-24T02:04:54.683Z,70.40
2018-02-24T02:05:28.354Z,70.40
2018-02-24T02:06:02.804Z,70.70
2018-02-24T02:06:36.464Z,70.70
2018-02-24T02:07:09.812Z,70.60
2018-02-24T02:07:43.482Z,70.50
2018-02-24T02:08:17.156Z,71.10
2018-02-24T02:08:50.831Z,71.20
2018-02-24T02:09:24.502Z,70.70
2018-02-24T02:09:58.186Z,70.80
2018-02-24T02:10:32.626Z,71.10
2018-02-24T02:11:06.325Z,71.10
2018-02-24T02:11:39.993Z,71.10
2018-02-24T02:12:13.695Z,71.30
2018-02-24T02:12:47.410Z,71.10
2018-02-24T02:13:20.735Z,70.90
2018-02-24T02:13:55.311Z,71.00
2018-02-24T02:14:28.998Z,71.00
2018-02-24T02:15:02.662Z,70.90
2018-02-24T02:15:36.333Z,71.00
2018-02-24T02:16:10.315Z,71.20
2018-02-24T02:16:44.748Z,71.40
2018-02-24T02:17:18.414Z,71.40
2018-02-24T02:17:53.831Z,71.50
2018-02-24T02:18:28.365Z,71.80
2018-02-24T02:19:02.036Z,72.40
2018-02-24T02:19:36.505Z,72.70
2018-02-24T02:20:10.170Z,72.70
2018-02-24T02:20:43.851Z,73.60
2018-02-24T02:21:17.515Z,74.20
2018-02-24T02:21:53.894Z,75.50
2018-02-24T02:22:27.558Z,75.50
2018-02-24T02:23:01.993Z,76.60
2018-02-24T02:23:35.651Z,76.60
2018-02-24T02:24:10.095Z,77.30
2018-02-24T02:24:43.747Z,77.20
2018-02-24T02:25:18.213Z,77.20
2018-02-24T02:25:51.974Z,77.30
2018-02-24T02:26:25.671Z,77.00
2018-02-24T02:26:59.322Z,76.80
2018-02-24T02:27:33.774Z,77.00
2018-02-24T02:28:07.427Z,77.00
2018-02-24T02:28:41.871Z,77.10
2018-02-24T02:29:15.542Z,77.10
2018-02-24T02:29:49.241Z,77.10
2018-02-24T02:30:22.900Z,77.20
2018-02-24T02:30:57.345Z,77.50
2018-02-24T02:31:30.707Z,77.40
2018-02-24T02:32:04.383Z,77.60
2018-02-24T02:32:38.045Z,77.70
2018-02-24T02:33:11.721Z,78.00
2018-02-24T02:33:45.380Z,78.20
2018-02-24T02:34:19.039Z,78.30
2018-02-24T02:34:53.501Z,78.50
2018-02-24T02:35:27.161Z,78.60
2018-02-24T02:36:00.860Z,78.60
2018-02-24T02:36:34.540Z,78.70
2018-02-24T02:37:08.199Z,78.60
2018-02-24T02:37:42.631Z,78.40
2018-02-24T02:38:16.295Z,78.30
2018-02-24T02:38:50.744Z,77.60
2018-02-24T02:39:24.412Z,77.50
2018-02-24T02:39:58.079Z,77.30
2018-02-24T02:40:32.524Z,77.20
2018-02-24T02:41:06.237Z,77.10
2018-02-24T02:41:39.926Z,77.20
2018-02-24T02:42:13.594Z,77.50
2018-02-24T02:42:47.247Z,77.80
2018-02-24T02:43:21.670Z,79.20
2018-02-24T02:43:55.350Z,79.20
2018-02-24T02:44:29.804Z,81.40
2018-02-24T02:45:03.471Z,81.40
2018-02-24T02:45:37.140Z,82.10
2018-02-24T02:46:10.830Z,82.30
2018-02-24T02:46:44.520Z,82.60
2018-02-24T02:47:18.216Z,82.90
2018-02-24T02:47:51.887Z,83.10
2018-02-24T02:48:26.317Z,83.40
2018-02-24T02:48:59.982Z,83.30
2018-02-24T02:49:34.421Z,83.10
2018-02-24T02:50:08.344Z,83.00
2018-02-24T02:50:42.143Z,83.20
2018-02-24T02:51:15.825Z,82.80
2018-02-24T02:51:49.728Z,82.60
2018-02-24T02:52:23.404Z,82.90
2018-02-24T02:52:57.055Z,82.80
2018-02-24T02:53:30.733Z,82.70
2018-02-24T02:54:05.180Z,81.80
2018-02-24T02:54:38.852Z,81.70
2018-02-24T02:55:12.548Z,80.80
2018-02-24T02:55:46.208Z,80.20
2018-02-24T02:56:20.672Z,80.40
2018-02-24T02:56:54.096Z,80.30
2018-02-24T02:57:28.557Z,80.00
2018-02-24T02:58:02.222Z,80.40
2018-02-24T02:58:35.883Z,79.80
2018-02-24T02:59:10.331Z,80.80
2018-02-24T02:59:44.012Z,80.10
2018-02-24T03:00:17.671Z,80.90
2018-02-24T03:00:52.107Z,79.30
2018-02-24T03:01:25.767Z,79.20
2018-02-24T03:02:00.639Z,79.20
2018-02-24T03:02:34.364Z,79.00
2018-02-24T03:03:08.036Z,79.50
2018-02-24T03:03:41.375Z,79.10
2018-02-24T03:04:15.182Z,79.00
2018-02-24T03:04:49.705Z,78.50
2018-02-24T03:05:23.395Z,78.50
2018-02-24T03:05:57.067Z,78.50
2018-02-24T03:06:30.399Z,78.30
2018-02-24T03:07:04.126Z,78.30
2018-02-24T03:07:37.454Z,77.40
2018-02-24T03:08:11.124Z,77.40
2018-02-24T03:08:44.604Z,77.00
2018-02-24T03:09:18.272Z,76.80
2018-02-24T03:09:51.936Z,77.00
2018-02-24T03:10:26.366Z,76.60
2018-02-24T03:11:00.033Z,76.60
2018-02-24T03:11:34.491Z,76.60
2018-02-24T03:12:08.455Z,76.60
2018-02-24T03:12:42.125Z,76.60
2018-02-24T03:13:16.580Z,75.60
2018-02-24T03:13:50.250Z,75.20
2018-02-24T03:14:23.910Z,75.00
2018-02-24T03:14:57.590Z,75.10
2018-02-24T03:15:32.023Z,74.90
2018-02-24T03:16:06.450Z,75.20
2018-02-24T03:16:40.121Z,75.20
2018-02-24T03:17:14.618Z,74.60
2018-02-24T03:17:48.444Z,74.60
2018-02-24T03:18:21.789Z,73.70
2018-02-24T03:18:56.241Z,73.90
2018-02-24T03:19:29.910Z,73.30
2018-02-24T03:20:03.256Z,73.10
2018-02-24T03:20:36.924Z,73.00
2018-02-24T03:21:10.606Z,72.50
2018-02-24T03:21:44.270Z,72.30
2018-02-24T03:22:17.975Z,72.30
2018-02-24T03:22:51.634Z,72.10
2018-02-24T03:23:25.300Z,72.30
2018-02-24T03:23:58.973Z,71.90
2018-02-24T03:24:32.647Z,72.10
2018-02-24T03:25:06.324Z,72.30
2018-02-24T03:25:39.994Z,72.30
2018-02-24T03:26:13.667Z,72.30
2018-02-24T03:26:48.094Z,72.00
2018-02-24T03:27:21.785Z,71.90
2018-02-24T03:27:55.439Z,71.80
2018-02-24T03:28:29.918Z,71.10
2018-02-24T03:29:03.587Z,70.40
2018-02-24T03:29:37.259Z,70.40
2018-02-24T03:30:10.927Z,70.50
2018-02-24T03:30:45.375Z,70.10
2018-02-24T03:31:19.060Z,70.10
2018-02-24T03:31:52.544Z,70.20
2018-02-24T03:32:25.890Z,70.20
2018-02-24T03:33:00.332Z,70.80
2018-02-24T03:33:34.004Z,70.80
2018-02-24T03:34:07.673Z,71.10
2018-02-24T03:34:42.091Z,71.70
2018-02-24T03:35:16.509Z,71.90
2018-02-24T03:35:50.166Z,71.90
2018-02-24T03:36:23.819Z,72.30
2018-02-24T03:36:57.495Z,72.30
2018-02-24T03:37:31.190Z,72.40
2018-02-24T03:38:04.677Z,72.30
2018-02-24T03:38:38.350Z,72.10
2018-02-24T03:39:11.684Z,71.90
2018-02-24T03:39:45.280Z,71.40
2018-02-24T03:40:18.951Z,71.20
2018-02-24T03:40:52.614Z,71.00
2018-02-24T03:41:26.089Z,70.70
2018-02-24T03:41:59.558Z,70.80
2018-02-24T03:42:33.074Z,70.80
2018-02-24T03:43:06.558Z,70.70
2018-02-24T03:43:40.211Z,70.70
2018-02-24T03:44:14.642Z,71.20
2018-02-24T03:44:48.110Z,71.20
2018-02-24T03:45:21.588Z,71.10
2018-02-24T03:45:55.068Z,70.90
2018-02-24T03:46:29.503Z,70.30
2018-02-24T03:47:03.178Z,70.20
2018-02-24T03:47:36.678Z,70.20
2018-02-24T03:48:10.160Z,70.30
2018-02-24T03:48:43.819Z,70.10
2018-02-24T03:49:18.239Z,70.10
2018-02-24T03:49:51.727Z,70.00
2018-02-24T03:50:25.198Z,70.30
2018-02-24T03:50:59.437Z,69.90
2018-02-24T03:51:32.922Z,69.90
2018-02-24T03:52:06.582Z,69.30
2018-02-24T03:52:41.049Z,68.80
2018-02-24T03:53:14.538Z,68.80
2018-02-24T03:53:48.199Z,68.70
2018-02-24T03:54:21.855Z,68.50
2018-02-24T03:54:55.950Z,68.70
2018-02-24T03:55:30.186Z,68.70
2018-02-24T03:56:03.952Z,68.70
2018-02-24T03:56:37.602Z,68.20
2018-02-24T03:57:11.255Z,67.90
2018-02-24T03:57:44.775Z,67.80
2018-02-24T03:58:18.432Z,67.00
2018-02-24T03:58:52.134Z,66.50
2018-02-24T03:59:25.827Z,66.10
2018-02-24T03:59:59.511Z,65.70
2018-02-24T04:00:33.194Z,65.60
2018-02-24T04:01:06.850Z,65.60
2018-02-24T04:01:41.094Z,65.60
2018-02-24T04:02:14.779Z,65.60
2018-02-24T04:02:48.458Z,65.20
2018-02-24T04:03:22.122Z,65.10
2018-02-24T04:03:56.561Z,64.60
2018-02-24T04:04:30.046Z,64.60
2018-02-24T04:05:03.529Z,64.60
2018-02-24T04:05:37.012Z,64.10
2018-02-24T04:06:10.510Z,63.50
2018-02-24T04:06:44.243Z,63.20
2018-02-24T04:07:17.728Z,63.20
2018-02-24T04:07:51.450Z,63.00
2018-02-24T04:08:25.118Z,63.50
2018-02-24T04:08:59.563Z,62.30
2018-02-24T04:09:33.224Z,62.30
2018-02-24T04:10:07.663Z,62.40
2018-02-24T04:10:41.333Z,62.30
2018-02-24T04:11:15.025Z,62.30
2018-02-24T04:11:48.523Z,62.50
2018-02-24T04:12:22.277Z,62.20
2018-02-24T04:12:56.748Z,61.90
2018-02-24T04:13:30.134Z,61.90
2018-02-24T04:14:03.454Z,61.50
2018-02-24T04:14:37.891Z,61.30
2018-02-24T04:15:11.381Z,61.30
2018-02-24T04:15:45.035Z,61.10
2018-02-24T04:16:19.474Z,60.80
2018-02-24T04:16:52.955Z,60.80
2018-02-24T04:17:26.614Z,60.20
2018-02-24T04:18:01.086Z,59.70
2018-02-24T04:18:34.748Z,59.70
2018-02-24T04:19:08.239Z,59.60
2018-02-24T04:19:41.915Z,59.40
2018-02-24T04:20:15.579Z,59.50
2018-02-24T04:20:50.017Z,59.40
2018-02-24T04:21:23.674Z,59.30
2018-02-24T04:21:58.114Z,59.10
2018-02-24T04:22:31.771Z,59.10
2018-02-24T04:23:06.238Z,59.10
2018-02-24T04:23:39.905Z,59.10
2018-02-24T04:24:13.575Z,58.70
2018-02-24T04:24:47.241Z,58.80
2018-02-24T04:25:21.670Z,58.70
2018-02-24T04:25:55.332Z,58.70
2018-02-24T04:26:28.998Z,58.00
2018-02-24T04:27:02.658Z,57.80
2018-02-24T04:27:36.312Z,57.80
2018-02-24T04:28:10.783Z,57.80
2018-02-24T04:28:44.442Z,57.70
2018-02-24T04:29:18.098Z,57.80
2018-02-24T04:29:52.534Z,57.50
2018-02-24T04:30:26.196Z,57.50
2018-02-24T04:31:00.622Z,57.60
2018-02-24T04:31:34.277Z,57.50
2018-02-24T04:32:07.948Z,57.80
2018-02-24T04:32:41.602Z,57.80
2018-02-24T04:33:15.666Z,58.00
2018-02-24T04:33:50.093Z,57.80
2018-02-24T04:34:23.753Z,57.80
2018-02-24T04:34:58.204Z,56.90
2018-02-24T04:35:31.858Z,56.90
2018-02-24T04:36:06.289Z,57.10
2018-02-24T04:36:39.946Z,57.10
2018-02-24T04:37:13.778Z,56.90
2018-02-24T04:37:47.427Z,56.90
2018-02-24T04:38:21.115Z,56.90
2018-02-24T04:38:54.777Z,56.80
2018-02-24T04:39:28.435Z,56.60
2018-02-24T04:40:02.092Z,56.50
2018-02-24T04:40:36.519Z,56.50
2018-02-24T04:41:10.184Z,56.00
2018-02-24T04:41:44.664Z,55.90
2018-02-24T04:42:18.334Z,55.30
2018-02-24T04:42:51.995Z,55.10
2018-02-24T04:43:25.712Z,55.10
2018-02-24T04:43:59.377Z,55.00
2018-02-24T04:44:33.040Z,55.20
2018-02-24T04:45:06.704Z,55.40
2018-02-24T04:45:40.372Z,55.70
2018-02-24T04:46:14.031Z,55.70
2018-02-24T04:46:47.753Z,55.90
2018-02-24T04:47:21.415Z,56.00
2018-02-24T04:47:55.075Z,56.10
2018-02-24T04:48:29.095Z,56.30
2018-02-24T04:49:03.512Z,56.30
2018-02-24T04:49:37.178Z,56.30
2018-02-24T04:50:11.609Z,55.80
2018-02-24T04:50:45.284Z,55.80
2018-02-24T04:51:19.704Z,55.50
2018-02-24T04:51:53.366Z,55.50
2018-02-24T04:52:27.224Z,55.60
2018-02-24T04:53:00.891Z,56.00
2018-02-24T04:53:34.965Z,56.40
2018-02-24T04:54:09.398Z,56.90
2018-02-24T04:54:43.062Z,56.90
2018-02-24T04:55:16.731Z,56.70
2018-02-24T04:55:50.386Z,56.60
2018-02-24T04:56:24.062Z,56.60
2018-02-24T04:56:57.720Z,56.40
2018-02-24T04:57:32.231Z,55.70
2018-02-24T04:58:05.889Z,55.60
2018-02-24T04:58:39.588Z,55.10
2018-02-24T04:59:14.013Z,54.50
2018-02-24T04:59:48.455Z,54.30
2018-02-24T05:00:22.113Z,54.20
2018-02-24T05:00:55.766Z,54.10
2018-02-24T05:01:29.418Z,53.80
2018-02-24T05:02:02.764Z,53.60
2018-02-24T05:02:37.211Z,53.50
2018-02-24T05:03:10.894Z,53.50
2018-02-24T05:03:44.590Z,53.30
2018-02-24T05:04:18.249Z,53.20
2018-02-24T05:04:51.912Z,53.30
2018-02-24T05:05:25.597Z,53.40
2018-02-24T05:05:59.461Z,53.20
2018-02-24T05:06:33.128Z,53.60
2018-02-24T05:07:06.796Z,53.40
2018-02-24T05:07:41.226Z,53.70
2018-02-24T05:08:14.918Z,53.60
2018-02-24T05:08:48.619Z,53.30
2018-02-24T05:09:22.293Z,53.40
2018-02-24T05:09:55.962Z,53.20
2018-02-24T05:10:30.392Z,53.10
2018-02-24T05:11:04.067Z,53.10
2018-02-24T05:11:37.797Z,52.90
2018-02-24T05:12:11.468Z,52.70
2018-02-24T05:12:45.123Z,52.90
2018-02-24T05:13:19.543Z,52.90
2018-02-24T05:13:53.242Z,52.90
2018-02-24T05:14:26.899Z,52.80
2018-02-24T05:15:00.240Z,52.80
2018-02-24T05:15:33.918Z,52.90
2018-02-24T05:16:07.570Z,52.90
2018-02-24T05:16:41.986Z,53.10
2018-02-24T05:17:16.449Z,53.30
2018-02-24T05:17:50.118Z,53.30
2018-02-24T05:18:23.804Z,53.70
2018-02-24T05:18:57.488Z,53.90
2018-02-24T05:19:31.141Z,54.10
2018-02-24T05:20:05.245Z,54.40
2018-02-24T05:20:39.672Z,54.70
2018-02-24T05:21:13.340Z,54.60
2018-02-24T05:21:47.806Z,54.80
2018-02-24T05:22:21.472Z,54.70
2018-02-24T05:22:55.127Z,54.70
2018-02-24T05:23:30.110Z,54.50
2018-02-24T05:24:03.802Z,54.50
2018-02-24T05:24:37.471Z,54.30
2018-02-24T05:25:11.162Z,54.20
2018-02-24T05:25:44.846Z,54.20
2018-02-24T05:26:18.491Z,54.40
2018-02-24T05:26:52.918Z,53.80
2018-02-24T05:27:26.578Z,53.80
2018-02-24T05:28:00.246Z,53.80
2018-02-24T05:28:33.908Z,53.60
2018-02-24T05:29:07.594Z,53.40
2018-02-24T05:29:41.254Z,53.50
2018-02-24T05:30:15.676Z,53.20
2018-02-24T05:30:49.336Z,53.20
2018-02-24T05:31:23.097Z,53.30
2018-02-24T05:31:56.759Z,52.40
2018-02-24T05:32:30.104Z,52.40
2018-02-24T05:33:04.559Z,52.60
2018-02-24T05:33:38.220Z,52.50
2018-02-24T05:34:12.509Z,52.40
2018-02-24T05:34:46.950Z,52.60
2018-02-24T05:35:20.616Z,52.50
2018-02-24T05:35:53.950Z,52.70
2018-02-24T05:36:27.632Z,52.90
2018-02-24T05:37:01.306Z,53.30
2018-02-24T05:37:35.015Z,53.90
2018-02-24T05:38:08.702Z,54.40
2018-02-24T05:38:42.365Z,54.80
2018-02-24T05:39:16.064Z,55.00
2018-02-24T05:39:49.750Z,55.30
2018-02-24T05:40:23.414Z,55.50
2018-02-24T05:40:57.512Z,55.80
2018-02-24T05:41:32.108Z,56.00
2018-02-24T05:42:06.538Z,56.90
2018-02-24T05:42:40.218Z,56.30
2018-02-24T05:43:14.647Z,56.90
2018-02-24T05:43:48.302Z,56.90
2018-02-24T05:44:22.006Z,57.00
2018-02-24T05:44:56.435Z,57.20
2018-02-24T05:45:30.093Z,57.20
2018-02-24T05:46:04.525Z,57.40
2018-02-24T05:46:38.198Z,57.30
2018-02-24T05:47:12.646Z,56.50
2018-02-24T05:47:46.343Z,56.50
2018-02-24T05:48:20.010Z,56.10
2018-02-24T05:48:53.681Z,55.70
2018-02-24T05:49:28.134Z,55.40
2018-02-24T05:50:01.818Z,55.40
2018-02-24T05:50:35.476Z,54.70
2018-02-24T05:51:09.134Z,54.40
2018-02-24T05:51:42.827Z,54.20
2018-02-24T05:52:16.512Z,54.10
2018-02-24T05:52:50.181Z,54.20
2018-02-24T05:53:23.847Z,54.60
2018-02-24T05:53:57.535Z,55.00
2018-02-24T05:54:31.234Z,55.40
2018-02-24T05:55:04.591Z,56.00
2018-02-24T05:55:38.246Z,56.30
2018-02-24T05:56:11.915Z,56.50
2018-02-24T05:56:45.648Z,56.60
2018-02-24T05:57:19.471Z,56.70
2018-02-24T05:57:52.973Z,56.80
2018-02-24T05:58:26.653Z,56.70
2018-02-24T05:59:00.322Z,56.80
2018-02-24T05:59:34.015Z,56.80
2018-02-24T06:00:07.682Z,56.80
2018-02-24T06:00:42.119Z,56.30
2018-02-24T06:01:15.771Z,56.30
2018-02-24T06:01:50.204Z,55.10
2018-02-24T06:02:23.865Z,55.00
2018-02-24T06:02:57.970Z,54.70
2018-02-24T06:03:32.408Z,54.30
2018-02-24T06:04:05.889Z,54.30
2018-02-24T06:04:39.583Z,54.20
2018-02-24T06:05:13.272Z,54.10
2018-02-24T06:05:46.934Z,54.10
2018-02-24T06:06:21.643Z,55.10
2018-02-24T06:06:56.083Z,54.80
2018-02-24T06:07:29.787Z,54.80
2018-02-24T06:08:03.463Z,55.10
2018-02-24T06:08:37.143Z,55.40
2018-02-24T06:09:10.819Z,55.50
2018-02-24T06:09:44.554Z,55.60
2018-02-24T06:10:18.250Z,55.70
2018-02-24T06:10:51.922Z,55.70
2018-02-24T06:11:25.610Z,55.80
2018-02-24T06:11:59.292Z,55.80
2018-02-24T06:12:32.982Z,55.80
2018-02-24T06:13:06.631Z,55.80
2018-02-24T06:13:41.053Z,56.10
2018-02-24T06:14:15.497Z,56.10
2018-02-24T06:14:49.202Z,56.10
2018-02-24T06:15:22.886Z,56.20
2018-02-24T06:15:56.556Z,56.30
2018-02-24T06:16:30.243Z,56.30
2018-02-24T06:17:03.583Z,56.20
2018-02-24T06:17:38.022Z,56.30
2018-02-24T06:18:11.678Z,56.30
2018-02-24T06:18:45.335Z,56.20
2018-02-24T06:19:18.995Z,56.20
2018-02-24T06:19:52.686Z,56.10
2018-02-24T06:20:26.170Z,56.00
2018-02-24T06:20:59.847Z,55.40
2018-02-24T06:21:33.523Z,54.90
2018-02-24T06:22:07.629Z,54.40
2018-02-24T06:22:41.158Z,54.40
2018-02-24T06:23:14.826Z,54.50
2018-02-24T06:23:48.574Z,55.10
2018-02-24T06:24:22.258Z,55.70
2018-02-24T06:24:55.978Z,56.50
2018-02-24T06:25:29.658Z,57.00
2018-02-24T06:26:03.953Z,58.20
2018-02-24T06:26:37.882Z,58.80
2018-02-24T06:27:11.384Z,58.80
2018-02-24T06:27:45.059Z,59.70
2018-02-24T06:28:18.921Z,60.00
2018-02-24T06:28:52.717Z,60.10
2018-02-24T06:29:27.171Z,60.00
2018-02-24T06:30:00.878Z,60.00
2018-02-24T06:30:34.390Z,59.50
2018-02-24T06:31:08.050Z,59.10
2018-02-24T06:31:41.775Z,59.10
2018-02-24T06:32:16.036Z,58.10
2018-02-24T06:32:49.904Z,58.10
2018-02-24T06:33:23.413Z,57.30
2018-02-24T06:33:57.091Z,56.80
2018-02-24T06:34:30.619Z,56.30
2018-02-24T06:35:04.308Z,56.00
2018-02-24T06:35:37.977Z,55.30
2018-02-24T06:36:11.454Z,55.20
2018-02-24T06:36:44.943Z,55.20
2018-02-24T06:37:18.670Z,55.10
2018-02-24T06:37:52.350Z,55.20
2018-02-24T06:38:26.036Z,55.30
2018-02-24T06:38:59.521Z,55.40
2018-02-24T06:39:32.998Z,55.30
2018-02-24T06:40:06.539Z,55.30
2018-02-24T06:40:40.014Z,55.30
2018-02-24T06:41:14.253Z,54.80
2018-02-24T06:41:48.154Z,54.70
2018-02-24T06:42:21.826Z,54.40
2018-02-24T06:42:55.495Z,54.10
2018-02-24T06:43:28.974Z,53.90
2018-02-24T06:44:03.426Z,52.90
2018-02-24T06:44:37.102Z,52.90
2018-02-24T06:45:10.589Z,52.70
2018-02-24T06:45:44.254Z,52.10
2018-02-24T06:46:17.570Z,52.00
2018-02-24T06:46:50.910Z,51.90
2018-02-24T06:47:25.347Z,51.80
2018-02-24T06:47:59.012Z,51.80
2018-02-24T06:48:32.691Z,52.00
2018-02-24T06:49:07.113Z,52.60
2018-02-24T06:49:40.776Z,52.60
2018-02-24T06:50:15.262Z,53.50
2018-02-24T06:50:48.930Z,53.50
2018-02-24T06:51:22.609Z,54.30
2018-02-24T06:51:56.262Z,55.20
2018-02-24T06:52:30.709Z,56.60
2018-02-24T06:53:04.387Z,56.60
2018-02-24T06:53:38.063Z,57.10
2018-02-24T06:54:11.977Z,57.90
2018-02-24T06:54:45.644Z,58.50
2018-02-24T06:55:19.349Z,59.20
2018-02-24T06:55:53.027Z,61.20
2018-02-24T06:56:26.691Z,62.50
2018-02-24T06:57:00.355Z,62.70
2018-02-24T06:57:34.022Z,62.90
2018-02-24T06:58:07.682Z,62.40
2018-02-24T06:58:41.347Z,62.10
2018-02-24T06:59:15.022Z,61.60
2018-02-24T06:59:48.675Z,61.70
2018-02-24T07:00:22.368Z,61.10
2018-02-24T07:00:56.053Z,60.70
2018-02-24T07:01:29.720Z,60.20
2018-02-24T07:02:03.394Z,59.90
2018-02-24T07:02:37.816Z,59.10
2018-02-24T07:03:11.484Z,59.10
2018-02-24T07:03:45.994Z,58.70
2018-02-24T07:04:19.662Z,58.70
2018-02-24T07:04:53.350Z,58.70
2018-02-24T07:05:27.046Z,59.00
2018-02-24T07:06:00.715Z,58.40
2018-02-24T07:06:34.574Z,58.40
2018-02-24T07:07:08.243Z,58.30
2018-02-24T07:07:42.344Z,57.80
2018-02-24T07:08:16.782Z,58.00
2018-02-24T07:08:50.447Z,57.90
2018-02-24T07:09:24.936Z,57.30
2018-02-24T07:09:58.603Z,57.30
2018-02-24T07:10:32.302Z,57.00
2018-02-24T07:11:06.035Z,57.00
2018-02-24T07:11:39.770Z,57.10
2018-02-24T07:12:13.443Z,57.10
2018-02-24T07:12:47.162Z,57.10
2018-02-24T07:13:20.842Z,56.90
2018-02-24T07:13:54.507Z,56.70
2018-02-24T07:14:28.169Z,56.60
2018-02-24T07:15:02.624Z,55.40
2018-02-24T07:15:36.666Z,55.40